Overview Statistics Trail Chart Weather Telemetry Raw packets
 

This is the latest recevied weather packets stored in our database for station/object NK7E-2. If no packets are shown the sender has not sent any weather packets the latest 10 day(s).

<< 18 19 20 21 22 23 24 >>
Time Temp. Humidity Pressure Rain* Wind** Luminosity Snow
1788172216 22.78° C 72% 1027.2 hPa 0 mm - - -
1788171616 22.78° C 73% 1027.1 hPa 0 mm - - -
1788171016 22.78° C 75% 1027.1 hPa 0 mm - - -
1788170416 23.33° C 76% 1026.8 hPa 0 mm - - -
1788169815 23.33° C 74% 1027.1 hPa 0 mm - - -
1788169216 23.33° C 72% 1026.9 hPa 0 mm - - -
1788168616 23.89° C 70% 1027 hPa 0 mm - - -
1788168016 23.89° C 69% 1027 hPa 0.25 mm - - -
1788167415 23.89° C 67% 1027 hPa 0.51 mm - - -
1788166815 23.33° C 70% 1027 hPa 0.51 mm - - -
1788166221 23.33° C 72% 1026.6 hPa 0.51 mm - - -
1788165615 23.89° C 74% 1026.5 hPa 0.51 mm - - -
1788165015 23.89° C 70% 1026.7 hPa 0.51 mm - - -
1788164415 24.44° C 67% 1026.2 hPa 0.25 mm - - -
1788163817 25.56° C 62% 1026.6 hPa 0 mm - - -
1788163217 26.11° C 54% 1026.8 hPa 0 mm - - -
1788162617 26.11° C 53% 1027.1 hPa 0 mm - - -
1788162017 26.11° C 53% 1027.5 hPa 0 mm - - -
1788161417 26.67° C 51% 1028.2 hPa 0 mm - - -
1788160817 27.22° C 47% 1028.3 hPa 0 mm - - -
1788160217 27.78° C 44% 1028.3 hPa 0 mm - - -
1788159617 28.33° C 43% 1028.2 hPa 0 mm - - -
1788159016 28.89° C 42% 1028.5 hPa 0 mm - - -
1788158416 28.89° C 46% 1028.2 hPa 0 mm - - -
1788157816 28.33° C 47% 1027.4 hPa 0 mm - - -

* Rain latest hour (hover to see other rain measurements)
** Current wind speed in m/s (hover to see current wind gust speed)